createdAt,value
2023-03-31T00:00:20.994Z,6.40
2023-03-31T00:03:11.144Z,6.80
2023-03-31T00:06:01.901Z,6.13
2023-03-31T00:08:52.348Z,6.53
2023-03-31T00:11:42.004Z,5.75
2023-03-31T00:14:30.758Z,6.03
2023-03-31T00:17:20.388Z,6.57
2023-03-31T00:20:12.630Z,6.13
2023-03-31T00:23:02.435Z,6.63
2023-03-31T00:25:51.117Z,7.35
2023-03-31T00:28:39.973Z,5.40
2023-03-31T00:31:29.737Z,7.65
2023-03-31T00:34:19.967Z,7.00
2023-03-31T00:37:10.157Z,4.55
2023-03-31T00:39:59.902Z,5.07
2023-03-31T00:42:48.583Z,9.07
2023-03-31T00:45:38.232Z,5.90
2023-03-31T00:48:28.111Z,7.32
2023-03-31T00:51:17.458Z,4.00
2023-03-31T00:54:09.016Z,6.43
2023-03-31T00:57:03.401Z,5.38
2023-03-31T00:59:58.546Z,6.05
2023-03-31T01:02:53.480Z,7.90
2023-03-31T01:05:47.314Z,6.35
2023-03-31T01:08:38.170Z,4.93
2023-03-31T01:11:32.026Z,6.50
2023-03-31T01:14:20.706Z,5.28
2023-03-31T01:17:11.032Z,8.93
2023-03-31T01:20:15.412Z,5.03
2023-03-31T01:23:42.679Z,4.60
2023-03-31T01:26:45.865Z,7.68
2023-03-31T01:30:14.095Z,6.47
2023-03-31T01:33:39.930Z,4.40
2023-03-31T01:37:01.887Z,5.45
2023-03-31T01:40:26.466Z,6.43
2023-03-31T01:43:24.440Z,6.13
2023-03-31T01:46:22.289Z,6.30
2023-03-31T01:49:19.107Z,6.53
2023-03-31T01:52:17.287Z,6.45
2023-03-31T01:55:12.733Z,6.82
2023-03-31T01:58:10.176Z,5.50
2023-03-31T02:01:01.949Z,8.02
2023-03-31T02:03:57.095Z,10.07
2023-03-31T02:06:53.021Z,5.63
2023-03-31T02:09:45.486Z,11.35
2023-03-31T02:12:37.491Z,6.63
2023-03-31T02:15:31.756Z,4.95
2023-03-31T02:18:26.221Z,6.90
2023-03-31T02:21:17.205Z,5.88
2023-03-31T02:24:10.852Z,8.20
2023-03-31T02:27:06.908Z,7.38
2023-03-31T02:29:56.690Z,8.13
2023-03-31T02:32:47.941Z,6.25
2023-03-31T02:35:37.305Z,6.82
2023-03-31T02:38:26.436Z,9.38
2023-03-31T02:41:15.829Z,8.98
2023-03-31T02:44:05.314Z,6.45
2023-03-31T02:46:55.401Z,8.57
2023-03-31T02:49:51.006Z,7.32
2023-03-31T02:52:53.006Z,6.63
2023-03-31T02:56:02.181Z,7.97
2023-03-31T02:59:03.272Z,8.15
2023-03-31T03:02:06.759Z,7.95
2023-03-31T03:05:10.332Z,7.43
2023-03-31T03:08:16.329Z,8.77
2023-03-31T03:11:18.348Z,7.00
2023-03-31T03:14:15.782Z,5.38
2023-03-31T03:17:10.069Z,9.38
2023-03-31T03:20:04.169Z,6.05
2023-03-31T03:22:53.697Z,5.85
2023-03-31T03:25:42.777Z,7.18
2023-03-31T03:28:32.926Z,6.63
2023-03-31T03:31:24.161Z,6.60
2023-03-31T03:34:13.513Z,7.35
2023-03-31T03:37:03.519Z,7.90
2023-03-31T03:39:52.914Z,10.05
2023-03-31T03:42:42.103Z,7.53
2023-03-31T03:45:30.833Z,7.25
2023-03-31T03:48:20.126Z,11.27
2023-03-31T03:51:08.734Z,10.38
2023-03-31T03:53:59.141Z,7.68
2023-03-31T03:56:47.865Z,10.55
2023-03-31T03:59:37.415Z,8.80
2023-03-31T04:02:28.687Z,11.82
2023-03-31T04:05:17.847Z,8.57
2023-03-31T04:08:08.497Z,9.55
2023-03-31T04:10:59.576Z,7.30
2023-03-31T04:13:48.658Z,9.77
2023-03-31T04:16:38.561Z,9.82
2023-03-31T04:19:27.533Z,9.15
2023-03-31T04:22:20.987Z,8.63
2023-03-31T04:25:14.938Z,8.32
2023-03-31T04:28:07.410Z,11.70
2023-03-31T04:30:58.868Z,10.38
2023-03-31T04:33:48.340Z,9.32
2023-03-31T04:36:43.799Z,10.63
2023-03-31T04:39:33.042Z,10.90
2023-03-31T04:42:21.731Z,11.07
2023-03-31T04:45:13.380Z,9.82
2023-03-31T04:48:03.485Z,11.50
2023-03-31T04:50:52.608Z,10.63
2023-03-31T04:53:41.235Z,9.45
2023-03-31T04:56:30.959Z,8.93
2023-03-31T04:59:19.603Z,9.50
2023-03-31T05:02:10.570Z,14.32
2023-03-31T05:04:59.338Z,11.77
2023-03-31T05:07:48.724Z,12.40
2023-03-31T05:10:37.609Z,10.57
2023-03-31T05:13:27.097Z,11.48
2023-03-31T05:16:16.643Z,15.27
2023-03-31T05:19:06.676Z,13.93
2023-03-31T05:21:55.868Z,10.25
2023-03-31T05:24:44.510Z,11.15
2023-03-31T05:27:33.851Z,12.82
2023-03-31T05:30:22.653Z,12.23
2023-03-31T05:33:11.913Z,10.05
2023-03-31T05:36:04.877Z,15.48
2023-03-31T05:38:55.211Z,14.55
2023-03-31T05:41:43.869Z,13.63
2023-03-31T05:44:32.801Z,13.75
2023-03-31T05:47:23.203Z,13.70
2023-03-31T05:50:14.662Z,14.37
2023-03-31T05:53:05.457Z,17.50
2023-03-31T05:55:59.517Z,14.05
2023-03-31T05:58:48.192Z,14.35
2023-03-31T06:01:37.516Z,17.63
2023-03-31T06:04:26.262Z,14.65
2023-03-31T06:07:15.523Z,12.95
2023-03-31T06:10:08.040Z,12.98
2023-03-31T06:12:57.020Z,12.50
2023-03-31T06:15:54.323Z,19.80
2023-03-31T06:18:43.362Z,13.95
2023-03-31T06:21:32.068Z,17.20
2023-03-31T06:24:21.778Z,16.95
2023-03-31T06:27:11.805Z,14.55
2023-03-31T06:30:01.337Z,15.23
2023-03-31T06:32:50.194Z,18.23
2023-03-31T06:35:41.091Z,17.05
2023-03-31T06:38:29.777Z,15.75
2023-03-31T06:41:21.054Z,16.52
2023-03-31T06:44:11.728Z,16.38
2023-03-31T06:47:00.374Z,17.55
2023-03-31T06:49:49.751Z,13.63
2023-03-31T06:52:38.956Z,13.98
2023-03-31T06:55:28.482Z,13.57
2023-03-31T06:58:17.242Z,13.55
2023-03-31T07:01:08.773Z,13.00
2023-03-31T07:03:57.692Z,13.05
2023-03-31T07:06:47.187Z,16.98
2023-03-31T07:09:35.854Z,17.67
2023-03-31T07:12:25.558Z,26.15
2023-03-31T07:15:14.206Z,16.00
2023-03-31T07:18:05.330Z,18.00
2023-03-31T07:20:54.126Z,21.20
2023-03-31T07:23:43.218Z,17.30
2023-03-31T07:26:31.899Z,16.83
2023-03-31T07:29:22.936Z,12.07
2023-03-31T07:32:11.617Z,14.10
2023-03-31T07:35:02.172Z,12.52
2023-03-31T07:37:52.460Z,11.80
2023-03-31T07:40:42.262Z,13.02
2023-03-31T07:43:30.955Z,9.57
2023-03-31T07:46:23.285Z,12.18
2023-03-31T07:49:16.027Z,13.85
2023-03-31T07:52:06.423Z,13.50
2023-03-31T07:54:55.180Z,11.48
2023-03-31T07:57:46.298Z,10.85
2023-03-31T08:00:35.068Z,11.48
2023-03-31T08:03:24.401Z,10.00
2023-03-31T08:06:18.353Z,14.27
2023-03-31T08:09:08.511Z,13.63
2023-03-31T08:11:57.730Z,13.68
2023-03-31T08:14:46.349Z,11.40
2023-03-31T08:17:35.784Z,14.25
2023-03-31T08:20:24.540Z,16.10
2023-03-31T08:23:13.212Z,16.75
2023-03-31T08:26:15.776Z,12.88
2023-03-31T08:29:06.653Z,17.02
2023-03-31T08:31:55.539Z,14.52
2023-03-31T08:34:46.058Z,13.80
2023-03-31T08:37:34.817Z,17.40
2023-03-31T08:40:27.206Z,13.65
2023-03-31T08:43:23.835Z,18.58
2023-03-31T08:46:16.353Z,15.43
2023-03-31T08:49:05.952Z,18.17
2023-03-31T08:52:04.290Z,21.08
2023-03-31T08:54:56.670Z,19.10
2023-03-31T08:57:57.471Z,19.33
2023-03-31T09:00:56.038Z,16.30
2023-03-31T09:03:52.541Z,17.25
2023-03-31T09:06:45.564Z,18.77
2023-03-31T09:09:41.775Z,14.82
2023-03-31T09:12:39.905Z,13.32
2023-03-31T09:15:32.556Z,13.23
2023-03-31T09:18:37.609Z,14.80
2023-03-31T09:21:31.846Z,16.13
2023-03-31T09:24:24.506Z,17.90
2023-03-31T09:27:13.881Z,12.60
2023-03-31T09:30:05.569Z,14.48
2023-03-31T09:33:00.910Z,11.93
2023-03-31T09:35:52.247Z,10.25
2023-03-31T09:38:43.987Z,15.32
2023-03-31T09:41:34.152Z,14.05
2023-03-31T09:44:29.669Z,17.52
2023-03-31T09:47:22.622Z,10.00
2023-03-31T09:50:12.807Z,12.10
2023-03-31T09:53:06.065Z,11.40
2023-03-31T09:55:57.379Z,15.82
2023-03-31T09:58:47.256Z,13.90
2023-03-31T10:01:37.517Z,8.57
2023-03-31T10:04:28.970Z,13.93
2023-03-31T10:07:23.042Z,13.43
2023-03-31T10:10:28.656Z,12.20
2023-03-31T10:13:21.242Z,14.02
2023-03-31T10:16:14.708Z,10.65
2023-03-31T10:19:14.988Z,8.65
2023-03-31T10:22:07.349Z,8.88
2023-03-31T10:25:08.385Z,6.70
2023-03-31T10:27:59.002Z,6.43
2023-03-31T10:30:51.166Z,8.38
2023-03-31T10:33:45.408Z,6.40
2023-03-31T10:36:35.594Z,4.28
2023-03-31T10:39:32.728Z,6.30
2023-03-31T10:42:23.496Z,4.03
2023-03-31T10:45:36.309Z,6.43
2023-03-31T10:48:30.065Z,7.03
2023-03-31T10:51:20.726Z,3.45
2023-03-31T10:54:10.279Z,3.50
2023-03-31T10:57:03.406Z,3.97
2023-03-31T11:00:05.820Z,4.57
2023-03-31T11:03:36.306Z,2.35
2023-03-31T11:06:35.247Z,3.00
2023-03-31T11:09:38.461Z,1.67
2023-03-31T11:12:33.169Z,3.35
2023-03-31T11:15:26.493Z,2.53
2023-03-31T11:18:33.161Z,2.25
2023-03-31T11:21:29.333Z,1.95
2023-03-31T11:24:28.879Z,2.40
2023-03-31T11:27:37.277Z,3.33
2023-03-31T11:30:30.256Z,2.40
2023-03-31T11:33:38.831Z,2.45
2023-03-31T11:36:42.906Z,5.72
2023-03-31T11:39:42.599Z,2.20
2023-03-31T11:42:38.823Z,3.15
2023-03-31T11:45:35.117Z,3.17
2023-03-31T11:48:33.100Z,2.40
2023-03-31T11:51:26.317Z,3.33
2023-03-31T11:54:21.693Z,3.65
2023-03-31T11:57:15.759Z,1.75
2023-03-31T12:00:13.394Z,3.85
2023-03-31T12:03:11.084Z,2.67
2023-03-31T12:06:06.595Z,1.88
2023-03-31T12:09:08.344Z,2.97
2023-03-31T12:12:04.607Z,4.10
2023-03-31T12:14:56.844Z,2.28
2023-03-31T12:17:50.886Z,2.13
2023-03-31T12:20:43.801Z,3.50
2023-03-31T12:23:39.912Z,2.88
2023-03-31T12:26:39.652Z,2.65
2023-03-31T12:29:32.905Z,3.42
2023-03-31T12:32:24.769Z,2.95
2023-03-31T12:35:21.726Z,1.90
2023-03-31T12:38:26.556Z,2.95
2023-03-31T12:41:24.580Z,2.90
2023-03-31T12:44:25.471Z,3.50
2023-03-31T12:47:36.863Z,2.33
2023-03-31T12:50:50.713Z,1.75
2023-03-31T12:53:53.707Z,1.55
2023-03-31T12:57:13.874Z,3.35
2023-03-31T13:00:27.136Z,2.60
2023-03-31T13:03:46.115Z,2.88
2023-03-31T13:06:55.732Z,2.55
2023-03-31T13:09:53.194Z,2.67
2023-03-31T13:12:54.945Z,3.65
2023-03-31T13:15:54.415Z,4.40
2023-03-31T13:18:52.431Z,3.38
2023-03-31T13:21:55.311Z,2.78
2023-03-31T13:24:43.934Z,3.33
2023-03-31T13:27:36.031Z,1.83
2023-03-31T13:30:55.090Z,4.28
2023-03-31T13:33:47.975Z,5.30
2023-03-31T13:36:55.171Z,3.30
2023-03-31T13:40:18.264Z,3.25
2023-03-31T13:43:36.642Z,4.15
2023-03-31T13:46:47.406Z,4.55
2023-03-31T13:49:56.332Z,3.97
2023-03-31T13:52:54.672Z,3.45
2023-03-31T13:56:33.984Z,2.85
2023-03-31T13:59:56.210Z,3.80
2023-03-31T14:02:58.415Z,1.95
2023-03-31T14:05:53.545Z,2.17
2023-03-31T14:08:51.355Z,2.42
2023-03-31T14:11:40.881Z,2.78
2023-03-31T14:14:30.818Z,1.70
2023-03-31T14:17:20.269Z,1.85
2023-03-31T14:20:30.680Z,1.63
2023-03-31T14:23:35.593Z,1.40
2023-03-31T14:26:42.618Z,1.75
2023-03-31T14:29:42.560Z,1.38
2023-03-31T14:32:41.410Z,1.35
2023-03-31T14:35:38.613Z,1.55
2023-03-31T14:38:30.562Z,2.70
2023-03-31T14:41:29.822Z,0.82
2023-03-31T14:44:19.256Z,2.30
2023-03-31T14:47:15.404Z,1.00
2023-03-31T14:50:07.806Z,2.03
2023-03-31T14:52:58.657Z,2.03
2023-03-31T14:55:58.235Z,1.55
2023-03-31T14:58:52.861Z,1.92
2023-03-31T15:01:41.855Z,1.50
2023-03-31T15:04:42.160Z,2.45
2023-03-31T15:07:31.608Z,3.40
2023-03-31T15:10:23.918Z,0.95
2023-03-31T15:13:17.584Z,2.08
2023-03-31T15:16:22.170Z,2.45
2023-03-31T15:19:17.556Z,2.10
2023-03-31T15:22:14.197Z,2.70
2023-03-31T15:25:02.943Z,2.33
2023-03-31T15:27:55.855Z,2.67
2023-03-31T15:30:47.645Z,2.03
2023-03-31T15:33:41.433Z,1.38
2023-03-31T15:36:31.703Z,2.80
2023-03-31T15:39:20.317Z,3.05
2023-03-31T15:42:09.464Z,2.67
2023-03-31T15:45:37.375Z,1.65
2023-03-31T15:48:30.223Z,2.22
2023-03-31T15:51:20.775Z,3.13
2023-03-31T15:54:31.309Z,2.05
2023-03-31T15:57:20.028Z,2.55
2023-03-31T16:00:43.065Z,2.65
2023-03-31T16:03:39.089Z,3.67
2023-03-31T16:06:37.978Z,4.15
2023-03-31T16:09:39.250Z,1.15
2023-03-31T16:12:32.049Z,3.05
2023-03-31T16:15:29.993Z,3.22
2023-03-31T16:18:25.102Z,1.83
2023-03-31T16:21:16.795Z,2.17
2023-03-31T16:24:06.486Z,2.40
2023-03-31T16:27:01.480Z,2.33
2023-03-31T16:29:50.418Z,2.33
2023-03-31T16:32:41.162Z,2.22
2023-03-31T16:35:35.023Z,3.88
2023-03-31T16:38:26.913Z,3.63
2023-03-31T16:41:16.341Z,4.13
2023-03-31T16:44:06.350Z,2.63
2023-03-31T16:46:55.407Z,2.50
2023-03-31T16:49:45.419Z,1.98
2023-03-31T16:52:35.128Z,3.78
2023-03-31T16:55:23.815Z,1.77
2023-03-31T16:58:13.604Z,3.75
2023-03-31T17:01:03.186Z,4.40
2023-03-31T17:03:52.317Z,3.92
2023-03-31T17:06:43.401Z,5.18
2023-03-31T17:09:32.453Z,3.45
2023-03-31T17:12:21.349Z,2.33
2023-03-31T17:15:12.054Z,2.72
2023-03-31T17:18:01.348Z,5.07
2023-03-31T17:20:50.078Z,6.32
2023-03-31T17:23:41.166Z,6.60
2023-03-31T17:26:30.298Z,9.38
2023-03-31T17:29:19.490Z,3.10
2023-03-31T17:32:08.856Z,5.70
2023-03-31T17:34:58.088Z,3.67
2023-03-31T17:37:46.801Z,8.00
2023-03-31T17:40:37.869Z,3.25
2023-03-31T17:43:27.520Z,2.22
2023-03-31T17:46:17.414Z,2.80
2023-03-31T17:49:07.749Z,3.80
2023-03-31T17:51:57.335Z,2.63
2023-03-31T17:54:48.635Z,3.47
2023-03-31T17:57:40.617Z,2.05
2023-03-31T18:00:29.979Z,2.65
2023-03-31T18:03:18.771Z,3.90
2023-03-31T18:06:11.494Z,3.03
2023-03-31T18:09:00.703Z,1.92
2023-03-31T18:11:49.799Z,3.08
2023-03-31T18:14:39.801Z,1.83
2023-03-31T18:17:29.960Z,2.95
2023-03-31T18:20:20.564Z,2.17
2023-03-31T18:23:10.188Z,1.98
2023-03-31T18:25:58.915Z,2.05
2023-03-31T18:28:48.745Z,1.13
2023-03-31T18:31:39.463Z,1.20
2023-03-31T18:34:28.852Z,2.03
2023-03-31T18:37:18.351Z,2.67
2023-03-31T18:40:08.773Z,3.25
2023-03-31T18:42:58.028Z,1.23
2023-03-31T18:45:49.368Z,1.63
2023-03-31T18:48:40.546Z,1.35
2023-03-31T18:51:29.687Z,3.17
2023-03-31T18:54:18.348Z,1.85
2023-03-31T18:57:07.322Z,2.80
2023-03-31T18:59:57.060Z,1.30
2023-03-31T19:02:45.886Z,4.65
2023-03-31T19:05:36.446Z,1.70
2023-03-31T19:08:25.599Z,0.63
2023-03-31T19:11:16.110Z,1.60
2023-03-31T19:14:05.365Z,2.10
2023-03-31T19:16:54.000Z,1.85
2023-03-31T19:19:43.658Z,0.98
2023-03-31T19:22:34.271Z,3.40
2023-03-31T19:25:24.589Z,1.75
2023-03-31T19:28:16.784Z,2.38
2023-03-31T19:31:21.273Z,1.75
2023-03-31T19:34:12.119Z,2.75
2023-03-31T19:37:23.637Z,1.23
2023-03-31T19:40:15.784Z,3.22
2023-03-31T19:43:04.515Z,1.33
2023-03-31T19:45:56.134Z,2.53
2023-03-31T19:48:44.917Z,2.72
2023-03-31T19:51:33.914Z,2.53
2023-03-31T19:54:22.759Z,1.40
2023-03-31T19:57:14.003Z,0.93
2023-03-31T20:00:04.104Z,1.20
2023-03-31T20:02:54.325Z,1.65
2023-03-31T20:05:42.914Z,1.88
2023-03-31T20:08:32.431Z,2.15
2023-03-31T20:11:21.339Z,0.63
2023-03-31T20:14:11.745Z,2.65
2023-03-31T20:17:01.081Z,1.02
2023-03-31T20:19:50.240Z,2.08
2023-03-31T20:22:38.957Z,2.53
2023-03-31T20:25:28.324Z,1.80
2023-03-31T20:28:16.868Z,1.42
2023-03-31T20:31:12.342Z,5.95
2023-03-31T20:34:01.626Z,1.27
2023-03-31T20:36:51.584Z,1.25
2023-03-31T20:39:40.097Z,2.40
2023-03-31T20:42:29.018Z,2.95
2023-03-31T20:45:17.736Z,3.08
2023-03-31T20:48:09.582Z,2.75
2023-03-31T20:50:58.470Z,1.77
2023-03-31T20:53:53.950Z,3.92
2023-03-31T20:56:43.115Z,3.35
2023-03-31T20:59:33.007Z,3.75
2023-03-31T21:02:21.718Z,4.05
2023-03-31T21:05:12.810Z,4.72
2023-03-31T21:08:03.837Z,4.10
2023-03-31T21:10:52.358Z,3.35
2023-03-31T21:13:41.713Z,4.28
2023-03-31T21:16:30.754Z,4.22
2023-03-31T21:19:19.759Z,2.67
2023-03-31T21:22:09.660Z,2.97
2023-03-31T21:24:59.061Z,6.40
2023-03-31T21:27:47.537Z,4.10
2023-03-31T21:30:57.726Z,2.38
2023-03-31T21:33:47.863Z,2.53
2023-03-31T21:36:37.353Z,5.70
2023-03-31T21:39:29.404Z,4.97
2023-03-31T21:42:18.335Z,3.95
2023-03-31T21:45:08.848Z,2.97
2023-03-31T21:47:59.132Z,3.22
2023-03-31T21:50:48.045Z,2.53
2023-03-31T21:53:37.418Z,3.80
2023-03-31T21:56:32.051Z,4.18
2023-03-31T21:59:22.072Z,4.20
2023-03-31T22:02:10.755Z,5.40
2023-03-31T22:05:00.254Z,4.57
2023-03-31T22:07:49.031Z,4.20
2023-03-31T22:10:38.712Z,6.85
2023-03-31T22:13:30.977Z,3.72
2023-03-31T22:16:21.681Z,3.22
2023-03-31T22:19:12.924Z,9.05
2023-03-31T22:22:02.842Z,3.17
2023-03-31T22:24:51.857Z,3.28
2023-03-31T22:27:41.621Z,3.03
2023-03-31T22:30:32.084Z,3.58
2023-03-31T22:33:20.624Z,4.47
2023-03-31T22:36:10.140Z,2.70
2023-03-31T22:38:58.785Z,4.20
2023-03-31T22:41:49.379Z,3.10
2023-03-31T22:44:40.232Z,2.50
2023-03-31T22:47:30.963Z,2.90
2023-03-31T22:50:19.740Z,5.82
2023-03-31T22:53:11.093Z,7.22
2023-03-31T22:56:05.656Z,3.42
2023-03-31T22:58:58.908Z,2.53
2023-03-31T23:01:53.196Z,3.50
2023-03-31T23:04:43.041Z,3.78
2023-03-31T23:07:32.902Z,3.80
2023-03-31T23:10:21.437Z,3.47
2023-03-31T23:13:11.615Z,2.55
2023-03-31T23:16:05.127Z,3.00
2023-03-31T23:18:57.030Z,4.57
2023-03-31T23:21:46.982Z,3.72
2023-03-31T23:24:36.629Z,1.58
2023-03-31T23:27:25.465Z,3.08
2023-03-31T23:30:15.619Z,3.80
2023-03-31T23:33:04.208Z,3.63
2023-03-31T23:35:53.864Z,3.83
2023-03-31T23:38:44.642Z,1.75
2023-03-31T23:41:35.312Z,2.88
2023-03-31T23:44:23.788Z,2.03
2023-03-31T23:47:13.102Z,3.40
2023-03-31T23:50:01.618Z,2.40
2023-03-31T23:52:50.598Z,2.92
2023-03-31T23:55:40.974Z,1.70
2023-03-31T23:58:32.628Z,2.03
